Flight Track Log - Related Links

Times and Time Zones

All times are in EST time to prevent confusion due to time zone crossing. See the AMF1990 flight status page for this flight to view local times or setup timezone preferences in your user account.

Time Position Orientation Groundspeed Altitude Reporting Facility
EST Latitude Longitude Course Direction KTS MPH feet Rate Location/Type
Tue 09:35:27 AM 27.7656 -97.5036 213° Southwest 101 116 700  Level Houston Center
Tue 09:36:01 AM 27.7492 -97.5156 213° Southwest 143 165 2,200 2,512 Climbing Houston Center
Tue 09:36:10 AM 27.7489 -97.5247 268° West 130 150 2,500 2,129 Climbing Houston Center
Tue 09:37:03 AM 27.7567 -97.5636 283° West 179 206 4,400 2,361 Climbing Houston Center
Tue 09:37:11 AM 27.7639 -97.5678 333° Northwest 191 220 4,900 2,903 Climbing Houston Center
Tue 09:38:05 AM 27.8019 -97.6000 323° Northwest 181 208 7,400 2,700 Climbing Houston Center
Tue 09:38:11 AM 27.8058 -97.6047 313° West 183 211 7,600 2,516 Climbing Houston Center
Tue 09:39:07 AM 27.8419 -97.6342 324° Northwest 179 206 10,000 2,390 Climbing Houston Center
Tue 09:40:09 AM 27.8836 -97.6703 323° Northwest 186 214 12,300 2,371 Climbing Houston Center
Tue 09:41:11 AM 27.9281 -97.7094 322° Northwest 197 227 14,900 1,355 Climbing Houston Center
Tue 09:42:13 AM 27.9781 -97.7569 320° Northwest 241 277 15,100 48 Climbing Houston Center
Tue 09:43:15 AM 28.0375 -97.8106 321° Northwest 266 306 15,000 1,488 Descending Houston Center
Tue 09:44:18 AM 28.0867 -97.8600 318° Northwest 210 242 18,200 2,400 Climbing Houston Center
Tue 09:45:20 AM 28.1064 -97.9136 293° West 183 211 20,000 871 Climbing Houston Center
Tue 09:46:22 AM 28.1333 -97.9781 295° West 223 257 20,000  Level Houston Center
Tue 09:47:24 AM 28.1756 -98.0422 307° West 247 284 20,000  Level Houston Center
Tue 09:48:26 AM 28.2356 -98.0872 327° Northwest 254 292 20,000  Level Houston Center
Tue 09:49:28 AM 28.2994 -98.1394 324° Northwest 256 295 20,000  Level Houston Center
Tue 09:50:30 AM 28.3578 -98.1889 323° Northwest 257 296 20,000  Level Houston Center
Tue 09:51:33 AM 28.4178 -98.2375 325° Northwest 259 298 20,000  Level Houston Center
Tue 09:52:35 AM 28.4761 -98.2886 322° Northwest 259 298 20,000  Level Houston Center
Tue 09:53:37 AM 28.5361 -98.3353 326° Northwest 259 298 20,000 -48 Level Houston Center
Tue 09:54:39 AM 28.6022 -98.3867 326° Northwest 259 298 19,900  Descending Houston Center
Tue 09:55:41 AM 28.6778 -98.3867 360° North 265 305 20,000 48 Climbing Houston Center
Tue 09:56:43 AM 28.7553 -98.3964 354° North 267 307 20,000  Level Houston Center
Tue 09:57:45 AM 28.8286 -98.4061 353° North 264 304 20,000  Level Houston Center
Tue 09:58:48 AM 28.9078 -98.4147 355° North 265 305 20,000  Level Houston Center
Tue 09:59:50 AM 28.9808 -98.4211 356° North 264 304 20,000  Level Houston Center
Tue 10:00:52 AM 29.0606 -98.4300 354° North 265 305 20,000  Level Houston Center
Tue 10:01:54 AM 29.1339 -98.4347 357° North 263 303 20,000  Level Houston Center
Tue 10:02:56 AM 29.2136 -98.4392 357° North 266 306 20,000  Level Houston Center
Tue 10:03:58 AM 29.2878 -98.4442 357° North 267 307 20,000  Level Houston Center
Tue 10:05:00 AM 29.3619 -98.4489 357° North 268 308 20,000  Level Houston Center
Tue 10:06:03 AM 29.4425 -98.4536 357° North 268 308 20,000  Level Houston Center
Tue 10:07:05 AM 29.5103 -98.4583 357° North 265 305 20,000  Level Houston Center
Tue 10:08:07 AM 29.5739 -98.4928 335° Northwest 258 297 20,000  Level Houston Center
Tue 10:09:09 AM 29.6253 -98.5706 307° West 259 298 20,000  Level Houston Center
Tue 10:10:11 AM 29.6694 -98.6350 308° West 256 295 20,000  Level Houston Center
Tue 10:11:13 AM 29.7175 -98.7047 308° West 258 297 20,000  Level Houston Center
Tue 10:12:15 AM 29.7592 -98.7717 306° West 258 297 20,000  Level Houston Center
Tue 10:13:17 AM 29.8042 -98.8442 306° West 257 296 20,000  Level Houston Center
Tue 10:14:20 AM 29.8458 -98.9114 306° West 259 298 20,000  Level Houston Center
Tue 10:15:22 AM 29.8917 -98.9836 306° West 259 298 20,000  Level Houston Center
Tue 10:16:24 AM 29.9342 -99.0519 306° West 261 300 20,000  Level Houston Center
Tue 10:17:26 AM 29.9767 -99.1150 308° West 259 298 20,000  Level Houston Center
Tue 10:18:28 AM 30.0206 -99.1822 307° West 264 304 20,000  Level Houston Center
Tue 10:19:30 AM 30.0653 -99.2489 308° West 264 304 20,000  Level Houston Center
Tue 10:20:32 AM 30.1178 -99.3297 307° West 264 304 20,000  Level Houston Center
Tue 10:21:35 AM 30.1661 -99.3942 311° West 266 306 20,000  Level Houston Center
Tue 10:22:37 AM 30.2114 -99.4608 308° West 265 305 20,000  Level Houston Center
Tue 10:23:39 AM 30.2542 -99.5286 306° West 264 304 20,000  Level Houston Center
Tue 10:24:43 AM 30.2992 -99.5956 308° West 264 304 20,000  Level Houston Center
Tue 10:25:43 AM 30.3511 -99.6761 307° West 262 302 20,000  Level Houston Center
Tue 10:26:45 AM 30.3942 -99.7439 306° West 264 304 20,000  Level Houston Center
Tue 10:27:47 AM 30.4389 -99.8111 308° West 265 305 20,000  Level Houston Center
Tue 10:28:49 AM 30.4822 -99.8800 306° West 265 305 20,000  Level Houston Center
Tue 10:29:51 AM 30.5256 -99.9492 306° West 267 307 20,000  Level Houston Center
Tue 10:30:54 AM 30.5686 -100.0161 307° West 261 300 20,000  Level Houston Center
Tue 10:31:56 AM 30.6214 -100.0978 307° West 263 303 20,000  Level Houston Center
Tue 10:32:58 AM 30.6664 -100.1647 308° West 264 304 20,000  Level Houston Center
Tue 10:34:00 AM 30.7122 -100.2322 308° West 267 307 20,000  Level Houston Center
Tue 10:35:02 AM 30.7567 -100.3003 307° West 266 306 20,000  Level Houston Center
Tue 10:36:04 AM 30.8017 -100.3692 307° West 268 308 20,000  Level Houston Center
Tue 10:37:06 AM 30.8550 -100.4500 308° West 265 305 20,000  Level Houston Center
Tue 10:38:09 AM 30.8994 -100.5192 307° West 268 308 20,000  Level Houston Center
Tue 10:39:11 AM 30.9444 -100.5883 307° West 269 310 20,000  Level Houston Center
Tue 10:40:13 AM 30.9889 -100.6567 307° West 268 308 20,000  Level Houston Center
Tue 10:41:16 AM 31.0353 -100.7242 309° West 268 308 20,000  Level Houston Center
Tue 10:42:17 AM 31.0900 -100.8067 308° West 269 310 20,000  Level Houston Center
Tue 10:43:19 AM 31.1364 -100.8742 309° West 269 310 20,000  Level Houston Center
Tue 10:44:21 AM 31.1803 -100.9417 307° West 265 305 20,000  Level Houston Center
Tue 10:45:24 AM 31.2244 -101.0139 306° West 270 311 20,000  Level Houston Center
Tue 10:46:26 AM 31.2656 -101.0817 305° West 268 308 20,000  Level Houston Center
Tue 10:47:28 AM 31.3194 -101.1653 307° West 268 308 20,000 -381 Level Houston Center
Tue 10:48:32 AM 31.3656 -101.2364 307° West 272 313 19,200 -919 Descending Houston Center
Tue 10:49:32 AM 31.4094 -101.3158 303° West 285 328 18,100 -984 Descending Houston Center
Tue 10:50:34 AM 31.4550 -101.3947 304° West 292 336 17,200 -1,056 Descending Houston Center
Tue 10:51:37 AM 31.5042 -101.4733 306° West 297 342 15,900 -1,440 Descending Houston Center
Tue 10:52:39 AM 31.5642 -101.5650 308° West 297 342 14,200 -1,645 Descending Houston Center
Tue 10:53:41 AM 31.6128 -101.6419 307° West 296 341 12,500 -1,658 Descending Houston Center
Tue 10:55:11 AM 31.6786 -101.7464 307° West 284 327 10,000 -1,421 Descending Fort Worth Center
Tue 10:56:13 AM 31.7361 -101.8292 309° West 276 318 8,900 -1,113 Descending Fort Worth Center
Tue 10:57:15 AM 31.7814 -101.8953 309° West 270 311 7,700 -1,210 Descending Fort Worth Center
Tue 10:58:17 AM 31.8269 -101.9592 310° West 262 302 6,400 -1,056 Descending Fort Worth Center
Tue 10:59:20 AM 31.8708 -102.0203 310° West 255 293 5,500 -672 Descending Fort Worth Center
Tue 11:00:22 AM 31.8994 -102.0864 297° West 241 277 5,000 -726 Descending Fort Worth Center
Tue 11:01:24 AM 31.9194 -102.1408 293° West 207 238 4,000 -968 Descending Fort Worth Center
Tue 11:02:26 AM 31.9375 -102.1922 293° West 170 196 3,000 -968 Descending Fort Worth Center

Login

Don't have an account? Register now (free) for customized features, flight alerts, and more!